Terminal Aerodrome Forecast
Issued by NWS Wilmington, NC

Current Version | Previous Version | Graphics & Text | Print | Product List | Glossary Off
Versions: 1 2 3 4 5 6 7 8 9 10 11 12 13 14 15 16

000
FTUS42 KILM 301732
TAFMYR
TAF
KMYR 301732Z 3018/0118 20010KT P6SM SCT040 SCT250
     FM302000 20017KT P6SM FEW050 SCT090
     FM010200 22009KT P6SM VCTS SCT050CB BKN120
     FM010800 24006KT P6SM FEW060 SCT160
     FM011200 26008KT P6SM SCT070 SCT250=

USA.gov is the U.S. government's official web portal to all federal, state and local government web resources and services.